Pagina principale
METAR-TAF:

METAR-TAF

Aeroporti :

Vientiane, Laos

Aeroporto di Vientiane-Wattay

latitudine: 17-57N, longitudine: 102-34E, altezza: 171 m

Osservazione

Il bollettino è stato emesso 24 minuti fa, alle 01:00 UTC
Vento 4 kt da nord-ovest
Temperature 24°C
Umidità 89%
Pressione 1014 hPa
Visibilità: 6000 m

METAR: VLVT 250100Z 32004KT 6000 NSC 24/22 Q1014 NOSIG

Ora: 08:24 (01:24 UTC)

Previsione

Il bollettino è stato emesso 2 ore e 24 minuti fa, alle 23:00 UTC
Previsione valida dal 25 alle 00 UTC al 25 alle 24 UTC
Vento 4 kt da ovest/nord-ovest
Visibilità: 7000 m
Nubi sparse ad un'altezza di 2000 ft
Poco nuvoloso ad un'altezza di 5000 ft
Temporaneamente
dal 25 alle 00 UTC al 25 alle 03 UTC
Visibilità: 4000 m
Poco nuvoloso ad un'altezza di 5000 ft
foschia

TAF: VLVT 242300Z 2500/2524 30004KT 7000 SCT020 FEW050 TEMPO 2500/2503 4000 BR FEW050

Osservazioni e previsioni meteorologiche di più di 4000 aeroporti (messaggi METAR e TAF).

Le stazioni disponibili sono rappresentate dai dischi gialli e rossi sulla carta.

Puntare il mouse per vedere il nome della stazione.

Clicca sopra per visualizzare le osservazioni e previsioni meteorologiche.

Per cambiare la mappa : fare clic sui pulsanti verdi con una croce nera per ingrandire, il pulsante verde con un trattino per diminuire, o sulla freccia verde per le mappe adiacenti.


METAR-TAF: